createdAt,value
2023-01-31T00:01:18.082Z,0.50
2023-01-31T00:06:21.427Z,0.50
2023-01-31T00:11:14.329Z,0.32
2023-01-31T00:16:07.253Z,0.45
2023-01-31T00:20:59.449Z,0.40
2023-01-31T00:25:51.185Z,0.63
2023-01-31T00:30:42.847Z,0.40
2023-01-31T00:35:34.620Z,1.55
2023-01-31T00:40:26.341Z,0.43
2023-01-31T00:45:18.620Z,0.32
2023-01-31T00:50:14.063Z,0.40
2023-01-31T00:55:05.871Z,0.35
2023-01-31T00:59:57.544Z,0.60
2023-01-31T01:04:49.311Z,0.50
2023-01-31T01:09:40.907Z,0.40
2023-01-31T01:19:24.875Z,0.20
2023-01-31T01:24:19.773Z,0.40
2023-01-31T01:29:12.707Z,0.65
2023-01-31T01:34:07.066Z,0.75
2023-01-31T01:38:58.772Z,0.47
2023-01-31T01:43:59.054Z,0.60
2023-01-31T01:48:54.862Z,0.40
2023-01-31T01:53:50.803Z,0.85
2023-01-31T01:58:45.558Z,0.47
2023-01-31T02:03:38.705Z,0.50
2023-01-31T02:08:33.256Z,0.60
2023-01-31T02:13:26.056Z,0.38
2023-01-31T02:18:20.874Z,0.68
2023-01-31T02:23:24.884Z,0.50
2023-01-31T02:28:33.154Z,0.38
2023-01-31T02:33:30.793Z,0.40
2023-01-31T02:38:34.930Z,0.57
2023-01-31T02:43:56.130Z,0.50
2023-01-31T02:48:58.714Z,0.35
2023-01-31T02:54:01.870Z,0.60
2023-01-31T02:59:05.514Z,0.40
2023-01-31T03:04:04.362Z,0.55
2023-01-31T03:09:22.721Z,0.38
2023-01-31T03:14:30.067Z,0.40
2023-01-31T03:19:48.583Z,0.60
2023-01-31T03:24:42.683Z,0.40
2023-01-31T03:29:38.518Z,0.55
2023-01-31T03:34:30.992Z,0.30
2023-01-31T03:39:47.292Z,0.82
2023-01-31T03:44:53.469Z,0.60
2023-01-31T03:49:48.680Z,0.90
2023-01-31T03:54:49.003Z,0.50
2023-01-31T03:59:43.759Z,0.50
2023-01-31T04:04:41.264Z,0.40
2023-01-31T04:09:33.908Z,0.40
2023-01-31T04:14:25.607Z,0.50
2023-01-31T04:19:17.250Z,0.35
2023-01-31T04:24:10.389Z,0.47
2023-01-31T04:29:04.311Z,1.80
2023-01-31T04:33:58.090Z,0.50
2023-01-31T04:38:50.835Z,0.40
2023-01-31T04:43:42.530Z,0.40
2023-01-31T04:48:34.706Z,0.20
2023-01-31T04:53:26.584Z,0.28
2023-01-31T04:58:18.342Z,0.47
2023-01-31T05:03:10.186Z,0.30
2023-01-31T05:08:02.181Z,0.10
2023-01-31T05:12:55.204Z,0.10
2023-01-31T05:17:54.270Z,0.10
2023-01-31T05:22:49.291Z,0.10
2023-01-31T05:27:41.216Z,0.20
2023-01-31T05:32:33.084Z,0.10
2023-01-31T05:37:24.842Z,0.10
2023-01-31T05:42:16.532Z,0.00
2023-01-31T05:47:08.350Z,0.00
2023-01-31T05:52:01.875Z,0.15
2023-01-31T05:56:54.016Z,0.10
2023-01-31T06:01:45.838Z,0.17
2023-01-31T06:06:38.165Z,0.10
2023-01-31T06:11:29.917Z,0.10
2023-01-31T06:16:21.716Z,0.10
2023-01-31T06:21:13.394Z,0.52
2023-01-31T06:26:05.318Z,0.10
2023-01-31T06:30:57.035Z,0.03
2023-01-31T06:35:48.832Z,0.10
2023-01-31T06:40:40.600Z,0.35
2023-01-31T06:45:33.016Z,0.10
2023-01-31T06:50:24.841Z,0.10
2023-01-31T06:55:16.645Z,0.10
2023-01-31T07:00:09.212Z,0.10
2023-01-31T07:05:00.985Z,0.17
2023-01-31T07:09:53.937Z,0.50
2023-01-31T07:14:45.662Z,0.10
2023-01-31T07:19:37.278Z,0.20
2023-01-31T07:24:28.948Z,0.10
2023-01-31T07:29:20.625Z,0.10
2023-01-31T07:34:12.323Z,0.10
2023-01-31T07:39:04.081Z,0.10
2023-01-31T07:43:55.961Z,0.10
2023-01-31T07:48:47.595Z,0.10
2023-01-31T07:53:42.355Z,0.10
2023-01-31T07:58:38.481Z,0.10
2023-01-31T08:03:34.233Z,0.20
2023-01-31T08:08:25.977Z,0.10
2023-01-31T08:13:17.731Z,0.30
2023-01-31T08:18:09.479Z,0.10
2023-01-31T08:23:01.291Z,0.10
2023-01-31T08:27:53.044Z,0.10
2023-01-31T08:32:44.669Z,0.10
2023-01-31T08:37:36.365Z,0.10
2023-01-31T08:42:28.155Z,0.10
2023-01-31T08:47:19.847Z,0.08
2023-01-31T08:52:11.574Z,0.73
2023-01-31T08:57:03.279Z,0.20
2023-01-31T09:01:54.974Z,0.40
2023-01-31T09:06:46.681Z,0.50
2023-01-31T09:11:39.656Z,0.55
2023-01-31T09:16:31.591Z,0.60
2023-01-31T09:21:24.395Z,0.50
2023-01-31T09:26:16.774Z,0.50
2023-01-31T09:31:16.911Z,0.50
2023-01-31T09:36:14.595Z,0.50
2023-01-31T09:41:28.492Z,1.13
2023-01-31T09:46:26.442Z,0.90
2023-01-31T09:51:19.651Z,0.90
2023-01-31T09:56:30.720Z,0.63
2023-01-31T10:01:31.859Z,1.30
2023-01-31T10:06:23.463Z,0.73
2023-01-31T10:11:28.038Z,0.90
2023-01-31T10:16:36.504Z,0.70
2023-01-31T10:26:42.308Z,0.60
2023-01-31T10:31:44.182Z,0.50
2023-01-31T10:37:07.112Z,0.50
2023-01-31T10:42:26.572Z,0.60
2023-01-31T10:47:20.979Z,1.02
2023-01-31T10:53:01.896Z,0.85
2023-01-31T10:57:54.736Z,0.70
2023-01-31T11:02:46.514Z,0.75
2023-01-31T11:07:38.217Z,1.13
2023-01-31T11:12:53.137Z,1.35
2023-01-31T11:17:46.699Z,0.60
2023-01-31T11:22:38.453Z,0.80
2023-01-31T11:27:49.656Z,1.33
2023-01-31T11:32:44.675Z,0.70
2023-01-31T11:37:53.594Z,0.55
2023-01-31T11:43:14.996Z,0.70
2023-01-31T11:48:13.110Z,0.50
2023-01-31T11:58:34.531Z,0.75
2023-01-31T12:03:27.377Z,0.80
2023-01-31T12:08:39.747Z,0.93
2023-01-31T12:13:31.531Z,0.75
2023-01-31T12:18:48.785Z,1.40
2023-01-31T12:24:10.773Z,0.93
2023-01-31T12:29:05.396Z,0.90
2023-01-31T12:34:15.435Z,0.85
2023-01-31T12:39:32.035Z,1.20
2023-01-31T12:44:42.526Z,1.02
2023-01-31T12:49:52.823Z,0.80
2023-01-31T12:55:22.532Z,0.82
2023-01-31T13:00:29.691Z,1.23
2023-01-31T13:05:34.687Z,1.02
2023-01-31T13:10:40.781Z,0.68
2023-01-31T13:15:44.237Z,1.38
2023-01-31T13:20:50.680Z,1.67
2023-01-31T13:25:50.347Z,0.80
2023-01-31T13:30:54.761Z,1.27
2023-01-31T13:35:50.613Z,1.20
2023-01-31T13:40:51.299Z,0.90
2023-01-31T13:45:52.744Z,1.10
2023-01-31T13:50:58.330Z,1.00
2023-01-31T13:55:52.319Z,1.10
2023-01-31T14:00:47.467Z,0.82
2023-01-31T14:05:45.024Z,0.65
2023-01-31T14:10:38.064Z,0.80
2023-01-31T14:15:51.945Z,0.80
2023-01-31T14:20:43.715Z,0.75
2023-01-31T14:25:42.659Z,1.05
2023-01-31T14:30:42.257Z,0.90
2023-01-31T14:36:06.232Z,1.25
2023-01-31T14:41:10.251Z,0.85
2023-01-31T14:46:24.180Z,0.82
2023-01-31T14:51:30.104Z,0.90
2023-01-31T14:56:26.862Z,1.00
2023-01-31T15:01:21.675Z,0.80
2023-01-31T15:06:22.533Z,0.75
2023-01-31T15:11:42.230Z,0.68
2023-01-31T15:16:37.740Z,0.88
2023-01-31T15:21:47.802Z,0.85
2023-01-31T15:26:41.165Z,1.05
2023-01-31T15:31:41.187Z,0.90
2023-01-31T15:36:42.265Z,1.20
2023-01-31T15:41:40.279Z,1.20
2023-01-31T15:46:33.527Z,1.50
2023-01-31T15:51:26.577Z,0.57
2023-01-31T15:56:24.371Z,0.57
2023-01-31T16:01:17.718Z,1.45
2023-01-31T16:06:37.878Z,0.90
2023-01-31T16:11:33.816Z,1.10
2023-01-31T16:16:27.196Z,0.82
2023-01-31T16:21:41.479Z,1.83
2023-01-31T16:26:37.709Z,1.10
2023-01-31T16:31:36.578Z,1.20
2023-01-31T16:36:51.370Z,2.03
2023-01-31T16:41:48.606Z,1.20
2023-01-31T16:46:44.449Z,1.07
2023-01-31T16:51:47.207Z,0.90
2023-01-31T16:56:40.352Z,1.20
2023-01-31T17:01:33.856Z,0.75
2023-01-31T17:06:26.505Z,0.63
2023-01-31T17:11:39.472Z,0.90
2023-01-31T17:16:31.472Z,0.60
2023-01-31T17:21:25.745Z,0.80
2023-01-31T17:26:22.819Z,0.95
2023-01-31T17:31:23.729Z,2.03
2023-01-31T17:36:16.905Z,0.77
2023-01-31T17:41:14.686Z,0.60
2023-01-31T17:46:06.910Z,0.90
2023-01-31T17:50:58.618Z,1.13
2023-01-31T17:55:50.869Z,1.63
2023-01-31T18:00:42.714Z,1.40
2023-01-31T18:05:39.100Z,0.90
2023-01-31T18:10:31.860Z,0.70
2023-01-31T18:15:23.675Z,0.60
2023-01-31T18:20:17.183Z,0.60
2023-01-31T18:25:08.896Z,1.05
2023-01-31T18:30:00.662Z,0.80
2023-01-31T18:34:52.426Z,1.30
2023-01-31T18:39:44.245Z,1.95
2023-01-31T18:44:36.646Z,1.00
2023-01-31T18:49:28.462Z,0.80
2023-01-31T18:54:21.454Z,1.13
2023-01-31T18:59:13.167Z,0.70
2023-01-31T19:04:04.975Z,0.80
2023-01-31T19:08:58.385Z,0.75
2023-01-31T19:13:50.117Z,0.90
2023-01-31T19:18:42.245Z,1.05
2023-01-31T19:23:33.933Z,1.60
2023-01-31T19:28:26.964Z,0.93
2023-01-31T19:33:19.544Z,0.85
2023-01-31T19:38:11.452Z,1.45
2023-01-31T19:43:03.149Z,0.90
2023-01-31T19:47:56.732Z,0.93
2023-01-31T19:52:49.783Z,1.70
2023-01-31T19:57:41.468Z,0.82
2023-01-31T20:02:33.227Z,0.90
2023-01-31T20:07:26.311Z,1.05
2023-01-31T20:12:18.073Z,1.30
2023-01-31T20:17:09.814Z,0.70
2023-01-31T20:22:01.886Z,1.48
2023-01-31T20:26:53.660Z,0.88
2023-01-31T20:31:45.513Z,1.77
2023-01-31T20:36:38.401Z,1.13
2023-01-31T20:41:30.206Z,0.93
2023-01-31T20:46:22.033Z,0.70
2023-01-31T20:51:13.823Z,0.95
2023-01-31T20:56:09.874Z,1.20
2023-01-31T21:01:05.492Z,0.70
2023-01-31T21:06:02.353Z,0.68
2023-01-31T21:10:56.271Z,1.45
2023-01-31T21:15:56.486Z,0.77
2023-01-31T21:20:49.129Z,0.68
2023-01-31T21:25:40.870Z,0.82
2023-01-31T21:30:32.579Z,0.80
2023-01-31T21:35:26.461Z,0.93
2023-01-31T21:40:18.712Z,1.50
2023-01-31T21:45:10.958Z,0.85
2023-01-31T21:50:02.588Z,1.00
2023-01-31T21:54:54.257Z,0.50
2023-01-31T21:59:46.921Z,0.60
2023-01-31T22:04:38.742Z,0.55
2023-01-31T22:09:30.447Z,0.80
2023-01-31T22:14:22.105Z,0.93
2023-01-31T22:19:14.465Z,0.73
2023-01-31T22:24:08.803Z,0.60
2023-01-31T22:29:02.715Z,1.08
2023-01-31T22:33:55.974Z,0.68
2023-01-31T22:38:47.888Z,0.95
2023-01-31T22:43:42.126Z,0.80
2023-01-31T22:48:34.892Z,0.75
2023-01-31T22:53:28.954Z,0.95
2023-01-31T22:58:21.080Z,0.60
2023-01-31T23:03:13.629Z,0.80
2023-01-31T23:08:05.601Z,0.80
2023-01-31T23:12:57.382Z,0.70
2023-01-31T23:17:49.209Z,0.85
2023-01-31T23:22:41.358Z,0.50
2023-01-31T23:27:33.388Z,0.50
2023-01-31T23:32:25.564Z,0.47
2023-01-31T23:37:17.515Z,1.35
2023-01-31T23:42:09.224Z,0.65
2023-01-31T23:47:00.922Z,0.95
2023-01-31T23:51:52.661Z,0.88
2023-01-31T23:56:44.359Z,0.75
